createdAt,value
2023-05-01T00:02:40.224Z,10.98
2023-05-01T00:06:45.010Z,10.93
2023-05-01T00:10:47.934Z,10.93
2023-05-01T00:14:50.875Z,10.80
2023-05-01T00:18:53.757Z,10.82
2023-05-01T00:22:58.925Z,10.79
2023-05-01T00:27:01.976Z,10.67
2023-05-01T00:31:05.100Z,10.70
2023-05-01T00:35:08.343Z,10.64
2023-05-01T00:39:12.748Z,10.49
2023-05-01T00:43:15.670Z,10.22
2023-05-01T00:47:18.836Z,10.07
2023-05-01T00:51:22.433Z,10.04
2023-05-01T00:55:27.431Z,10.21
2023-05-01T00:59:30.676Z,10.21
2023-05-01T01:03:33.527Z,10.02
2023-05-01T01:07:41.078Z,9.92
2023-05-01T01:11:51.813Z,9.92
2023-05-01T01:15:58.364Z,9.80
2023-05-01T01:20:15.308Z,9.85
2023-05-01T01:24:28.167Z,9.79
2023-05-01T01:28:44.728Z,9.83
2023-05-01T01:32:58.388Z,9.70
2023-05-01T01:37:04.961Z,9.90
2023-05-01T01:41:09.936Z,9.98
2023-05-01T01:45:16.603Z,10.18
2023-05-01T01:49:21.414Z,10.48
2023-05-01T01:53:27.901Z,10.76
2023-05-01T01:57:31.597Z,10.77
2023-05-01T02:01:36.090Z,10.75
2023-05-01T02:05:42.261Z,10.43
2023-05-01T02:09:47.253Z,10.18
2023-05-01T02:13:50.873Z,10.20
2023-05-01T02:17:54.575Z,9.98
2023-05-01T02:21:58.788Z,9.68
2023-05-01T02:26:04.431Z,9.70
2023-05-01T02:30:08.359Z,9.75
2023-05-01T02:34:11.776Z,9.68
2023-05-01T02:38:15.386Z,9.54
2023-05-01T02:42:21.623Z,9.54
2023-05-01T02:46:25.905Z,9.52
2023-05-01T02:50:30.692Z,9.54
2023-05-01T02:54:34.077Z,9.57
2023-05-01T02:58:39.278Z,9.36
2023-05-01T03:02:42.599Z,9.19
2023-05-01T03:06:46.173Z,9.06
2023-05-01T03:10:49.183Z,8.96
2023-05-01T03:14:53.416Z,9.03
2023-05-01T03:18:56.465Z,9.07
2023-05-01T03:22:59.411Z,8.93
2023-05-01T03:27:02.464Z,8.96
2023-05-01T03:31:06.937Z,9.19
2023-05-01T03:35:11.073Z,9.30
2023-05-01T03:39:14.096Z,9.26
2023-05-01T03:43:55.254Z,9.04
2023-05-01T03:48:17.837Z,9.04
2023-05-01T03:52:20.871Z,9.05
2023-05-01T03:56:25.992Z,9.01
2023-05-01T04:00:29.651Z,8.84
2023-05-01T04:04:33.962Z,8.77
2023-05-01T04:08:36.934Z,8.69
2023-05-01T04:12:39.818Z,8.60
2023-05-01T04:16:43.287Z,8.55
2023-05-01T04:20:48.042Z,8.54
2023-05-01T04:24:51.495Z,8.56
2023-05-01T04:28:54.347Z,8.68
2023-05-01T04:33:00.370Z,8.65
2023-05-01T04:37:07.273Z,8.72
2023-05-01T04:41:10.291Z,8.95
2023-05-01T04:45:13.926Z,9.07
2023-05-01T04:49:18.043Z,9.23
2023-05-01T04:53:22.331Z,9.63
2023-05-01T04:57:25.651Z,9.74
2023-05-01T05:01:29.862Z,10.01
2023-05-01T05:05:33.077Z,10.28
2023-05-01T05:09:38.046Z,10.44
2023-05-01T05:13:41.016Z,10.64
2023-05-01T05:17:47.963Z,10.77
2023-05-01T05:21:51.265Z,10.92
2023-05-01T05:25:56.178Z,11.08
2023-05-01T05:29:59.222Z,11.16
2023-05-01T05:34:02.440Z,11.33
2023-05-01T05:38:05.557Z,11.49
2023-05-01T05:42:14.610Z,11.64
2023-05-01T05:46:19.503Z,11.81
2023-05-01T05:50:24.230Z,11.93
2023-05-01T05:54:29.973Z,12.16
2023-05-01T05:58:39.298Z,12.22
2023-05-01T06:02:44.128Z,12.35
2023-05-01T06:06:49.840Z,12.42
2023-05-01T06:10:53.497Z,12.56
2023-05-01T06:15:03.541Z,12.83
2023-05-01T06:19:07.944Z,13.03
2023-05-01T06:23:13.934Z,13.23
2023-05-01T06:27:29.259Z,13.41
2023-05-01T06:31:35.503Z,13.50
2023-05-01T06:35:45.684Z,13.49
2023-05-01T06:39:48.993Z,13.64
2023-05-01T06:43:52.273Z,13.82
2023-05-01T06:47:59.150Z,13.86
2023-05-01T06:52:02.378Z,13.82
2023-05-01T06:56:06.035Z,13.90
2023-05-01T07:00:10.831Z,14.16
2023-05-01T07:04:15.676Z,14.37
2023-05-01T07:08:18.627Z,14.31
2023-05-01T07:12:24.551Z,14.40
2023-05-01T07:16:28.342Z,14.30
2023-05-01T07:20:34.762Z,13.98
2023-05-01T07:24:39.281Z,14.26
2023-05-01T07:28:43.346Z,14.37
2023-05-01T07:32:47.307Z,14.60
2023-05-01T07:36:52.316Z,14.83
2023-05-01T07:40:56.199Z,15.18
2023-05-01T07:44:59.363Z,15.40
2023-05-01T07:49:07.478Z,15.66
2023-05-01T07:53:14.795Z,15.33
2023-05-01T07:57:18.564Z,15.81
2023-05-01T08:01:24.873Z,16.34
2023-05-01T08:05:29.498Z,17.08
2023-05-01T08:09:34.116Z,17.69
2023-05-01T08:13:41.926Z,17.52
2023-05-01T08:17:44.914Z,17.97
2023-05-01T08:21:48.055Z,17.56
2023-05-01T08:25:53.876Z,17.91
2023-05-01T08:29:57.349Z,19.00
2023-05-01T08:34:03.378Z,18.91
2023-05-01T08:38:06.889Z,19.01
2023-05-01T08:42:15.247Z,17.42
2023-05-01T08:46:28.004Z,18.81
2023-05-01T08:50:33.078Z,19.02
2023-05-01T08:54:36.793Z,18.78
2023-05-01T08:58:45.560Z,18.40
2023-05-01T09:02:50.048Z,19.11
2023-05-01T09:06:55.282Z,18.77
2023-05-01T09:11:03.813Z,18.73
2023-05-01T09:15:09.700Z,18.57
2023-05-01T09:19:14.040Z,19.51
2023-05-01T09:23:18.148Z,19.35
2023-05-01T09:27:24.315Z,20.16
2023-05-01T09:31:33.029Z,20.84
2023-05-01T09:35:53.170Z,21.11
2023-05-01T09:40:04.151Z,20.86
2023-05-01T09:44:07.903Z,21.16
2023-05-01T09:48:15.355Z,21.02
2023-05-01T09:52:19.921Z,21.56
2023-05-01T09:56:25.635Z,20.50
2023-05-01T10:00:32.386Z,20.03
2023-05-01T10:04:37.367Z,21.27
2023-05-01T10:08:47.687Z,21.56
2023-05-01T10:12:52.475Z,21.85
2023-05-01T10:16:58.309Z,21.64
2023-05-01T10:21:08.384Z,22.19
2023-05-01T10:25:15.360Z,21.27
2023-05-01T10:29:29.874Z,21.81
2023-05-01T10:33:39.043Z,22.20
2023-05-01T10:37:52.481Z,21.88
2023-05-01T10:42:05.458Z,20.21
2023-05-01T10:46:27.777Z,21.94
2023-05-01T10:50:33.710Z,23.03
2023-05-01T10:54:40.594Z,23.70
2023-05-01T10:58:56.665Z,23.07
2023-05-01T11:03:14.779Z,23.15
2023-05-01T11:07:19.672Z,23.03
2023-05-01T11:11:44.110Z,23.05
2023-05-01T11:15:54.367Z,22.55
2023-05-01T11:19:59.885Z,23.03
2023-05-01T11:24:05.316Z,22.40
2023-05-01T11:28:09.833Z,22.84
2023-05-01T11:32:20.508Z,22.27
2023-05-01T11:36:28.139Z,22.72
2023-05-01T11:40:35.733Z,24.10
2023-05-01T11:44:42.794Z,22.58
2023-05-01T11:48:54.452Z,22.48
2023-05-01T11:53:00.021Z,21.29
2023-05-01T11:57:10.470Z,20.64
2023-05-01T12:01:14.355Z,20.53
2023-05-01T12:05:23.547Z,20.24
2023-05-01T12:09:29.504Z,20.38
2023-05-01T12:13:39.245Z,20.54
2023-05-01T12:17:46.582Z,21.89
2023-05-01T12:22:08.240Z,22.51
2023-05-01T12:26:23.811Z,23.10
2023-05-01T12:30:27.995Z,22.79
2023-05-01T12:34:35.135Z,22.11
2023-05-01T12:38:39.730Z,24.18
2023-05-01T12:42:53.173Z,23.00
2023-05-01T12:47:04.024Z,24.12
2023-05-01T12:51:09.795Z,24.57
2023-05-01T12:55:16.184Z,21.85
2023-05-01T12:59:23.596Z,21.74
2023-05-01T13:03:27.933Z,21.15
2023-05-01T13:07:32.459Z,21.17
2023-05-01T13:11:37.376Z,20.89
2023-05-01T13:15:40.887Z,20.14
2023-05-01T13:19:45.837Z,19.97
2023-05-01T13:23:55.458Z,19.46
2023-05-01T13:27:59.743Z,18.77
2023-05-01T13:32:05.865Z,17.73
2023-05-01T13:36:25.162Z,17.91
2023-05-01T13:40:35.893Z,17.78
2023-05-01T13:44:46.417Z,17.35
2023-05-01T13:48:54.735Z,17.42
2023-05-01T13:53:00.163Z,17.73
2023-05-01T13:57:06.669Z,17.79
2023-05-01T14:01:17.965Z,17.49
2023-05-01T14:05:24.736Z,17.33
2023-05-01T14:09:30.807Z,16.94
2023-05-01T14:13:35.880Z,16.89
2023-05-01T14:17:42.752Z,16.70
2023-05-01T14:21:49.814Z,16.65
2023-05-01T14:25:53.454Z,16.67
2023-05-01T14:30:00.196Z,17.03
2023-05-01T14:34:06.488Z,17.03
2023-05-01T14:38:19.488Z,17.25
2023-05-01T14:42:26.338Z,17.23
2023-05-01T14:46:38.950Z,17.51
2023-05-01T14:50:43.667Z,17.12
2023-05-01T14:54:48.613Z,17.20
2023-05-01T14:58:51.716Z,16.87
2023-05-01T15:02:57.031Z,16.53
2023-05-01T15:07:05.290Z,16.30
2023-05-01T15:11:11.673Z,16.07
2023-05-01T15:15:19.064Z,15.87
2023-05-01T15:19:26.108Z,15.57
2023-05-01T15:23:34.922Z,15.32
2023-05-01T15:27:40.479Z,13.69
2023-05-01T15:31:44.173Z,13.14
2023-05-01T15:35:48.973Z,12.74
2023-05-01T15:39:53.747Z,12.34
2023-05-01T15:43:57.037Z,12.02
2023-05-01T15:48:05.637Z,12.17
2023-05-01T15:52:08.925Z,12.22
2023-05-01T15:56:16.532Z,12.29
2023-05-01T16:00:21.865Z,12.33
2023-05-01T16:04:25.040Z,12.38
2023-05-01T16:08:29.413Z,12.27
2023-05-01T16:12:37.685Z,12.21
2023-05-01T16:16:42.675Z,12.25
2023-05-01T16:20:46.267Z,12.53
2023-05-01T16:24:49.574Z,12.41
2023-05-01T16:28:54.362Z,12.76
2023-05-01T16:32:58.648Z,12.68
2023-05-01T16:37:01.822Z,12.67
2023-05-01T16:41:05.765Z,12.83
2023-05-01T16:45:10.877Z,12.85
2023-05-01T16:49:15.848Z,12.94
2023-05-01T16:53:19.056Z,13.45
2023-05-01T16:57:22.418Z,14.00
2023-05-01T17:01:28.811Z,13.87
2023-05-01T17:05:32.069Z,13.66
2023-05-01T17:09:35.918Z,13.30
2023-05-01T17:13:44.035Z,13.82
2023-05-01T17:17:49.593Z,13.86
2023-05-01T17:21:57.285Z,14.22
2023-05-01T17:26:01.610Z,14.64
2023-05-01T17:30:11.766Z,14.73
2023-05-01T17:34:21.825Z,15.05
2023-05-01T17:38:30.927Z,14.68
2023-05-01T17:42:35.464Z,14.28
2023-05-01T17:46:39.059Z,14.25
2023-05-01T17:50:43.367Z,13.82
2023-05-01T17:54:46.652Z,13.74
2023-05-01T17:58:50.308Z,13.99
2023-05-01T18:02:56.908Z,14.12
2023-05-01T18:07:02.997Z,13.64
2023-05-01T18:11:09.477Z,13.42
2023-05-01T18:15:13.736Z,13.20
2023-05-01T18:19:21.722Z,12.98
2023-05-01T18:23:30.656Z,12.82
2023-05-01T18:27:34.368Z,12.61
2023-05-01T18:31:48.345Z,12.34
2023-05-01T18:35:56.868Z,12.28
2023-05-01T18:40:06.703Z,12.18
2023-05-01T18:44:13.697Z,12.18
2023-05-01T18:48:22.301Z,12.10
2023-05-01T18:52:28.088Z,12.19
2023-05-01T18:56:35.701Z,12.05
2023-05-01T19:00:41.164Z,11.92
2023-05-01T19:08:56.213Z,11.46
2023-05-01T19:13:03.029Z,11.60
2023-05-01T19:17:09.404Z,11.65
2023-05-01T19:21:13.219Z,11.59
2023-05-01T19:25:17.575Z,11.58
2023-05-01T19:29:26.918Z,11.72
2023-05-01T19:33:33.162Z,11.84
2023-05-01T19:37:40.263Z,11.94
2023-05-01T19:41:44.996Z,12.05
2023-05-01T19:45:51.004Z,12.04
2023-05-01T19:49:55.190Z,12.10
2023-05-01T19:54:05.688Z,12.14
2023-05-01T19:58:09.983Z,12.17
2023-05-01T20:02:16.016Z,12.17
2023-05-01T20:06:19.782Z,12.25
2023-05-01T20:10:23.281Z,12.21
2023-05-01T20:14:31.637Z,12.09
2023-05-01T20:18:38.887Z,12.07
2023-05-01T20:22:41.995Z,11.92
2023-05-01T20:26:51.599Z,11.78
2023-05-01T20:30:58.722Z,11.67
2023-05-01T20:35:04.585Z,11.54
2023-05-01T20:39:08.628Z,11.36
2023-05-01T20:43:13.040Z,11.27
2023-05-01T20:47:18.197Z,11.23
2023-05-01T20:51:29.998Z,11.15
2023-05-01T20:55:35.767Z,11.22
2023-05-01T20:59:40.887Z,11.28
2023-05-01T21:03:46.725Z,11.26
2023-05-01T21:07:51.412Z,11.21
2023-05-01T21:11:54.463Z,11.31
2023-05-01T21:15:57.568Z,11.19
2023-05-01T21:20:01.255Z,11.13
2023-05-01T21:24:07.709Z,11.20
2023-05-01T21:28:12.094Z,11.33
2023-05-01T21:32:16.533Z,11.36
2023-05-01T21:36:19.512Z,11.44
2023-05-01T21:40:24.394Z,11.47
2023-05-01T21:44:30.309Z,11.44
2023-05-01T21:48:35.663Z,11.42
2023-05-01T21:52:39.036Z,11.36
2023-05-01T21:56:43.346Z,11.25
2023-05-01T22:00:46.865Z,11.13
2023-05-01T22:04:53.617Z,11.15
2023-05-01T22:08:56.833Z,11.03
2023-05-01T22:13:01.273Z,11.00
2023-05-01T22:17:04.262Z,10.93
2023-05-01T22:21:07.154Z,10.77
2023-05-01T22:25:11.557Z,10.61
2023-05-01T22:29:16.346Z,10.56
2023-05-01T22:33:19.214Z,10.64
2023-05-01T22:37:23.903Z,10.61
2023-05-01T22:41:27.488Z,10.60
2023-05-01T22:45:32.068Z,10.56
2023-05-01T22:49:34.958Z,10.46
2023-05-01T22:53:37.952Z,10.37
2023-05-01T22:57:40.975Z,10.30
2023-05-01T23:01:45.287Z,10.20
2023-05-01T23:05:48.891Z,10.19
2023-05-01T23:09:51.878Z,10.12
2023-05-01T23:13:54.725Z,10.01
2023-05-01T23:17:58.984Z,10.06
2023-05-01T23:22:08.460Z,10.05
2023-05-01T23:26:12.060Z,9.98
2023-05-01T23:30:15.203Z,9.84
2023-05-01T23:34:19.592Z,9.76
2023-05-01T23:38:22.445Z,9.79
2023-05-01T23:42:25.458Z,9.71
2023-05-01T23:46:28.399Z,9.55
2023-05-01T23:50:32.875Z,9.44
2023-05-01T23:54:35.874Z,9.35
2023-05-01T23:58:38.802Z,9.17
